Terminal Aerodrome Forecast
Issued by NWS Bismarck, ND

Home | Current Version | Previous Version | Graphics & Text | Print | Product List | Glossary On
Versions: 1 2 3 4 5 6 7 8 9 10 11 12 13 14 15 16 17 18 19 20 21 22 23 24 25 26 27 28
000
FTUS43 KBIS 221556 AAD
TAFBIS
TAF AMD
KBIS 221556Z 2216/2312 15005KT P6SM VCSH SCT070 BKN090
      TEMPO 2216/2217 -FZRA BKN060
     FM221700 25008KT P6SM SKC
     FM222000 31010KT P6SM SKC
     FM230200 33004KT P6SM FEW300
     FM230700 22004KT P6SM FEW018 FEW300=

USA.gov is the U.S. government's official web portal to all federal, state and local government web resources and services.